createdAt,value
2018-10-05T00:01:11.370Z,62.09
2018-10-05T00:03:40.486Z,62.19
2018-10-05T00:06:09.748Z,62.23
2018-10-05T00:08:38.980Z,62.14
2018-10-05T00:11:08.301Z,62.16
2018-10-05T00:13:37.409Z,62.36
2018-10-05T00:16:06.536Z,62.66
2018-10-05T00:18:35.691Z,63.54
2018-10-05T00:21:04.770Z,63.10
2018-10-05T00:23:33.688Z,62.99
2018-10-05T00:26:02.888Z,63.65
2018-10-05T00:28:31.980Z,64.00
2018-10-05T00:31:01.417Z,64.51
2018-10-05T00:33:30.724Z,63.85
2018-10-05T00:35:59.914Z,63.97
2018-10-05T00:38:29.035Z,63.98
2018-10-05T00:40:59.886Z,64.27
2018-10-05T00:43:30.091Z,65.40
2018-10-05T00:45:59.249Z,65.97
2018-10-05T00:48:28.390Z,66.33
2018-10-05T00:50:57.652Z,66.86
2018-10-05T00:53:26.766Z,67.17
2018-10-05T00:55:55.919Z,67.18
2018-10-05T00:58:25.234Z,67.86
2018-10-05T01:00:54.426Z,67.81
2018-10-05T01:03:23.647Z,67.15
2018-10-05T01:05:53.157Z,67.03
2018-10-05T01:08:22.222Z,67.46
2018-10-05T01:10:51.303Z,67.38
2018-10-05T01:13:20.427Z,68.24
2018-10-05T01:15:49.451Z,69.12
2018-10-05T01:18:19.634Z,68.38
2018-10-05T01:20:49.803Z,69.00
2018-10-05T01:23:18.911Z,69.67
2018-10-05T01:25:48.105Z,69.82
2018-10-05T01:28:17.323Z,70.23
2018-10-05T01:30:46.503Z,70.65
2018-10-05T01:33:15.690Z,70.56
2018-10-05T01:35:44.906Z,70.57
2018-10-05T01:38:14.038Z,70.62
2018-10-05T01:40:43.369Z,70.52
2018-10-05T01:43:12.471Z,70.53
2018-10-05T01:45:41.738Z,70.58
2018-10-05T01:48:10.793Z,70.93
2018-10-05T01:50:39.847Z,71.02
2018-10-05T01:53:08.971Z,71.03
2018-10-05T01:55:37.986Z,70.76
2018-10-05T01:58:07.090Z,71.17
2018-10-05T02:00:36.210Z,70.92
2018-10-05T02:03:05.450Z,71.73
2018-10-05T02:05:34.742Z,71.66
2018-10-05T02:08:03.982Z,71.43
2018-10-05T02:10:32.974Z,71.70
2018-10-05T02:13:02.318Z,71.51
2018-10-05T02:15:31.491Z,71.84
2018-10-05T02:18:00.495Z,72.13
2018-10-05T02:20:30.610Z,72.13
2018-10-05T02:23:00.400Z,72.25
2018-10-05T02:25:29.435Z,72.36
2018-10-05T02:27:58.815Z,72.54
2018-10-05T02:30:28.000Z,72.20
2018-10-05T02:32:57.150Z,72.51
2018-10-05T02:35:26.289Z,72.85
2018-10-05T02:37:55.471Z,72.78
2018-10-05T02:40:24.560Z,73.33
2018-10-05T02:42:53.562Z,73.13
2018-10-05T02:45:22.615Z,73.02
2018-10-05T02:47:51.723Z,73.23
2018-10-05T02:50:21.219Z,72.76
2018-10-05T02:52:50.350Z,72.94
2018-10-05T02:55:19.446Z,73.31
2018-10-05T02:57:48.943Z,73.73
2018-10-05T03:00:28.926Z,74.14
2018-10-05T03:02:58.664Z,73.56
2018-10-05T03:05:27.770Z,73.27
2018-10-05T03:07:57.014Z,73.49
2018-10-05T03:10:26.188Z,73.40
2018-10-05T03:12:55.207Z,73.35
2018-10-05T03:15:24.279Z,73.56
2018-10-05T03:17:53.642Z,73.95
2018-10-05T03:20:22.652Z,73.65
2018-10-05T03:22:52.244Z,74.06
2018-10-05T03:25:21.587Z,74.00
2018-10-05T03:27:50.741Z,74.43
2018-10-05T03:30:19.933Z,74.52
2018-10-05T03:32:48.974Z,74.91
2018-10-05T03:35:18.074Z,75.52
2018-10-05T03:37:47.131Z,75.15
2018-10-05T03:40:16.351Z,75.16
2018-10-05T03:42:45.514Z,75.19
2018-10-05T03:45:14.579Z,75.16
2018-10-05T03:47:43.649Z,74.88
2018-10-05T03:50:13.300Z,73.78
2018-10-05T03:52:42.531Z,74.06
2018-10-05T03:55:11.777Z,74.07
2018-10-05T03:57:40.830Z,74.08
2018-10-05T04:00:09.964Z,74.43
2018-10-05T04:02:39.278Z,74.40
2018-10-05T04:05:08.424Z,74.81
2018-10-05T04:07:37.586Z,74.57
2018-10-05T04:10:07.078Z,74.97
2018-10-05T04:12:36.138Z,75.31
2018-10-05T04:15:05.345Z,75.03
2018-10-05T04:17:34.739Z,75.21
2018-10-05T04:20:03.922Z,75.03
2018-10-05T04:22:33.030Z,74.83
2018-10-05T04:25:02.416Z,74.90
2018-10-05T04:27:31.221Z,75.15
2018-10-05T04:30:00.389Z,75.15
2018-10-05T04:32:29.616Z,75.30
2018-10-05T04:34:58.886Z,75.14
2018-10-05T04:37:28.008Z,75.15
2018-10-05T04:39:57.423Z,73.66
2018-10-05T04:42:26.687Z,72.75
2018-10-05T04:44:55.818Z,71.53
2018-10-05T04:47:25.371Z,69.86
2018-10-05T04:49:54.393Z,67.97
2018-10-05T04:52:23.551Z,66.42
2018-10-05T04:54:52.945Z,64.16
2018-10-05T04:57:22.072Z,62.56
2018-10-05T04:59:51.387Z,61.30
2018-10-05T05:02:20.622Z,60.11
2018-10-05T05:04:49.736Z,58.40
2018-10-05T05:07:18.987Z,56.98
2018-10-05T05:09:48.366Z,54.88
2018-10-05T05:12:48.447Z,52.50
2018-10-05T05:15:17.467Z,50.83
2018-10-05T05:17:46.575Z,49.50
2018-10-05T05:20:15.707Z,49.40
2018-10-05T05:22:45.390Z,48.66
2018-10-05T05:25:14.511Z,47.24
2018-10-05T05:27:43.437Z,46.57
2018-10-05T05:30:12.959Z,46.05
2018-10-05T05:32:42.219Z,45.65
2018-10-05T05:35:11.531Z,44.55
2018-10-05T05:37:40.689Z,42.75
2018-10-05T05:40:09.980Z,42.27
2018-10-05T05:42:39.127Z,41.97
2018-10-05T05:45:08.779Z,41.59
2018-10-05T05:47:37.862Z,40.60
2018-10-05T05:50:06.951Z,40.34
2018-10-05T05:52:36.244Z,40.43
2018-10-05T05:55:05.394Z,40.29
2018-10-05T05:57:34.456Z,39.15
2018-10-05T06:00:04.120Z,39.08
2018-10-05T06:02:33.504Z,39.42
2018-10-05T06:05:02.563Z,38.64
2018-10-05T06:07:32.027Z,37.86
2018-10-05T06:10:01.216Z,37.70
2018-10-05T06:12:30.414Z,36.74
2018-10-05T06:14:59.904Z,36.37
2018-10-05T06:17:28.787Z,36.05
2018-10-05T06:19:57.799Z,34.86
2018-10-05T06:22:27.576Z,35.26
2018-10-05T06:24:56.511Z,35.89
2018-10-05T06:27:25.596Z,35.39
2018-10-05T06:29:55.335Z,35.42
2018-10-05T06:32:24.462Z,37.61
2018-10-05T06:34:53.571Z,35.51
2018-10-05T06:37:25.713Z,35.20
2018-10-05T06:39:54.830Z,36.29
2018-10-05T06:42:24.049Z,35.52
2018-10-05T06:44:53.617Z,34.76
2018-10-05T06:47:22.783Z,34.07
2018-10-05T06:49:52.016Z,34.03
2018-10-05T06:52:21.178Z,34.22
2018-10-05T06:54:50.286Z,35.06
2018-10-05T06:57:19.099Z,34.95
2018-10-05T06:59:48.584Z,34.59
2018-10-05T07:02:17.408Z,35.38
2018-10-05T07:04:46.687Z,34.96
2018-10-05T07:07:16.011Z,35.52
2018-10-05T07:09:45.381Z,35.45
2018-10-05T07:12:14.692Z,37.54
2018-10-05T07:14:44.264Z,40.09
2018-10-05T07:17:13.380Z,38.13
2018-10-05T07:19:42.463Z,36.36
2018-10-05T07:22:11.651Z,35.03
2018-10-05T07:24:40.834Z,36.63
2018-10-05T07:27:10.055Z,36.53
2018-10-05T07:29:39.453Z,36.59
2018-10-05T07:32:08.592Z,37.43
2018-10-05T07:34:37.680Z,36.49
2018-10-05T07:37:07.261Z,35.65
2018-10-05T07:39:36.454Z,35.03
2018-10-05T07:42:05.671Z,35.43
2018-10-05T07:44:34.922Z,35.11
2018-10-05T07:47:03.926Z,34.00
2018-10-05T07:49:33.023Z,34.22
2018-10-05T07:52:02.315Z,33.91
2018-10-05T07:54:31.554Z,33.52
2018-10-05T07:57:00.626Z,33.58
2018-10-05T07:59:30.062Z,33.66
2018-10-05T08:01:59.277Z,33.97
2018-10-05T08:04:28.384Z,34.99
2018-10-05T08:06:57.652Z,34.07
2018-10-05T08:09:26.838Z,34.82
2018-10-05T08:11:55.915Z,35.26
2018-10-05T08:14:25.394Z,34.90
2018-10-05T08:16:54.568Z,34.30
2018-10-05T08:19:23.675Z,33.46
2018-10-05T08:21:53.203Z,36.11
2018-10-05T08:24:22.271Z,35.68
2018-10-05T08:26:51.482Z,36.39
2018-10-05T08:29:21.096Z,37.34
2018-10-05T08:31:50.005Z,37.00
2018-10-05T08:34:19.212Z,37.55
2018-10-05T08:36:48.712Z,38.07
2018-10-05T08:39:17.985Z,38.30
2018-10-05T08:41:47.191Z,38.61
2018-10-05T08:44:16.594Z,38.70
2018-10-05T08:46:45.731Z,38.09
2018-10-05T08:49:14.991Z,37.98
2018-10-05T08:51:44.539Z,37.73
2018-10-05T08:54:13.569Z,38.01
2018-10-05T08:56:42.874Z,38.83
2018-10-05T08:59:12.450Z,38.26
2018-10-05T09:01:41.494Z,38.03
2018-10-05T09:04:10.550Z,37.84
2018-10-05T09:06:40.051Z,37.92
2018-10-05T09:09:09.276Z,37.83
2018-10-05T09:11:38.203Z,37.73
2018-10-05T09:14:07.831Z,37.23
2018-10-05T09:16:36.903Z,37.58
2018-10-05T09:19:06.085Z,37.99
2018-10-05T09:21:35.636Z,37.77
2018-10-05T09:24:04.928Z,38.28
2018-10-05T09:26:34.037Z,37.56
2018-10-05T09:29:03.463Z,37.56
2018-10-05T09:31:32.599Z,36.91
2018-10-05T09:34:01.797Z,37.23
2018-10-05T09:36:31.175Z,36.41
2018-10-05T09:39:00.487Z,36.30
2018-10-05T09:41:29.498Z,36.77
2018-10-05T09:43:58.914Z,36.34
2018-10-05T09:46:28.095Z,35.67
2018-10-05T09:48:57.241Z,35.56
2018-10-05T09:51:26.555Z,34.88
2018-10-05T09:53:55.698Z,34.88
2018-10-05T09:56:24.846Z,34.31
2018-10-05T09:58:54.186Z,34.20
2018-10-05T10:01:28.321Z,34.58
2018-10-05T10:03:57.542Z,34.54
2018-10-05T10:06:26.617Z,33.87
2018-10-05T10:08:55.807Z,33.35
2018-10-05T10:11:25.174Z,33.22
2018-10-05T10:13:54.358Z,33.19
2018-10-05T10:16:23.499Z,33.66
2018-10-05T10:18:52.983Z,33.13
2018-10-05T10:21:21.938Z,33.48
2018-10-05T10:23:51.092Z,33.76
2018-10-05T10:26:20.623Z,34.00
2018-10-05T10:28:49.882Z,33.60
2018-10-05T10:31:18.908Z,33.23
2018-10-05T10:33:48.541Z,33.30
2018-10-05T10:36:17.703Z,32.98
2018-10-05T10:38:46.997Z,33.05
2018-10-05T10:41:16.325Z,33.17
2018-10-05T10:43:45.391Z,33.02
2018-10-05T10:46:14.414Z,33.60
2018-10-05T10:48:43.607Z,33.52
2018-10-05T10:51:12.862Z,33.97
2018-10-05T10:53:42.120Z,34.13
2018-10-05T10:56:11.623Z,34.43
2018-10-05T10:58:40.767Z,33.81
2018-10-05T11:01:10.585Z,33.75
2018-10-05T11:03:39.813Z,33.90
2018-10-05T11:06:09.043Z,33.20
2018-10-05T11:08:38.178Z,33.79
2018-10-05T11:11:07.168Z,33.48
2018-10-05T11:13:36.326Z,33.70
2018-10-05T11:16:05.554Z,32.95
2018-10-05T11:18:34.705Z,33.19
2018-10-05T11:21:03.736Z,33.00
2018-10-05T11:23:32.918Z,32.99
2018-10-05T11:26:01.975Z,33.05
2018-10-05T11:28:31.022Z,33.02
2018-10-05T11:31:00.385Z,33.19
2018-10-05T11:33:29.483Z,32.73
2018-10-05T11:35:58.702Z,32.85
2018-10-05T11:38:28.052Z,32.53
2018-10-05T11:40:57.025Z,32.70
2018-10-05T11:43:26.198Z,33.00
2018-10-05T11:45:56.578Z,32.76
2018-10-05T11:48:26.140Z,32.51
2018-10-05T11:50:55.250Z,31.87
2018-10-05T11:53:24.479Z,32.36
2018-10-05T11:55:53.520Z,32.98
2018-10-05T11:58:22.790Z,32.55
2018-10-05T12:00:52.050Z,32.05
2018-10-05T12:03:21.279Z,32.52
2018-10-05T12:05:50.543Z,32.77
2018-10-05T12:08:20.055Z,32.67
2018-10-05T12:10:49.236Z,32.48
2018-10-05T12:13:18.379Z,32.80
2018-10-05T12:15:47.468Z,32.62
2018-10-05T12:18:16.632Z,32.43
2018-10-05T12:20:45.635Z,32.21
2018-10-05T12:23:15.046Z,32.27
2018-10-05T12:25:44.227Z,32.46
2018-10-05T12:28:13.161Z,31.38
2018-10-05T12:30:43.472Z,31.94
2018-10-05T12:33:12.719Z,31.84
2018-10-05T12:35:41.820Z,32.24
2018-10-05T12:38:14.340Z,32.06
2018-10-05T12:40:43.427Z,32.27
2018-10-05T12:43:12.533Z,32.28
2018-10-05T12:45:41.811Z,32.35
2018-10-05T12:48:10.983Z,32.30
2018-10-05T12:50:40.046Z,31.97
2018-10-05T12:53:09.354Z,32.71
2018-10-05T12:55:38.599Z,32.51
2018-10-05T12:58:07.811Z,32.50
2018-10-05T13:00:37.066Z,32.59
2018-10-05T13:03:06.115Z,32.67
2018-10-05T13:05:35.374Z,32.71
2018-10-05T13:08:04.899Z,32.28
2018-10-05T13:10:34.198Z,32.59
2018-10-05T13:13:03.449Z,32.15
2018-10-05T13:15:32.931Z,32.57
2018-10-05T13:18:02.163Z,32.53
2018-10-05T13:20:31.238Z,32.72
2018-10-05T13:23:00.634Z,32.65
2018-10-05T13:25:29.716Z,32.53
2018-10-05T13:27:58.819Z,32.62
2018-10-05T13:30:28.330Z,32.52
2018-10-05T13:32:57.523Z,33.14
2018-10-05T13:35:26.537Z,32.57
2018-10-05T13:37:55.855Z,32.58
2018-10-05T13:40:25.003Z,32.35
2018-10-05T13:42:54.714Z,32.86
2018-10-05T13:45:24.156Z,32.55
2018-10-05T13:47:53.243Z,32.85
2018-10-05T13:50:22.437Z,33.18
2018-10-05T13:52:52.115Z,32.85
2018-10-05T13:55:21.127Z,33.01
2018-10-05T13:57:50.263Z,32.91
2018-10-05T14:00:19.810Z,32.86
2018-10-05T14:02:49.097Z,32.99
2018-10-05T14:05:18.233Z,33.01
2018-10-05T14:07:47.702Z,32.79
2018-10-05T14:10:16.760Z,33.21
2018-10-05T14:12:45.763Z,32.95
2018-10-05T14:15:15.162Z,33.41
2018-10-05T14:17:44.433Z,33.09
2018-10-05T14:20:13.524Z,33.64
2018-10-05T14:22:42.787Z,33.41
2018-10-05T14:25:12.030Z,33.56
2018-10-05T14:27:41.274Z,33.64
2018-10-05T14:30:10.718Z,33.61
2018-10-05T14:32:39.912Z,34.04
2018-10-05T14:35:09.041Z,33.94
2018-10-05T14:37:38.655Z,33.60
2018-10-05T14:40:07.741Z,33.63
2018-10-05T14:42:37.055Z,33.88
2018-10-05T14:45:06.407Z,34.35
2018-10-05T14:47:35.620Z,34.02
2018-10-05T14:50:04.830Z,34.41
2018-10-05T14:52:34.175Z,34.62
2018-10-05T14:55:03.260Z,34.54
2018-10-05T14:57:32.461Z,34.25
2018-10-05T15:00:01.639Z,35.11
2018-10-05T15:02:30.825Z,34.80
2018-10-05T15:04:59.955Z,35.20
2018-10-05T15:07:29.330Z,35.42
2018-10-05T15:09:58.361Z,35.02
2018-10-05T15:12:27.520Z,35.57
2018-10-05T15:14:56.842Z,35.95
2018-10-05T15:17:25.975Z,35.65
2018-10-05T15:19:55.099Z,35.90
2018-10-05T15:22:24.439Z,36.40
2018-10-05T15:24:53.622Z,36.07
2018-10-05T15:27:22.804Z,36.25
2018-10-05T15:29:52.058Z,36.46
2018-10-05T15:32:21.301Z,36.82
2018-10-05T15:34:50.731Z,37.20
2018-10-05T15:37:20.204Z,36.90
2018-10-05T15:39:49.441Z,37.40
2018-10-05T15:42:18.726Z,37.70
2018-10-05T15:44:48.283Z,38.31
2018-10-05T15:47:17.888Z,38.04
2018-10-05T15:49:47.287Z,38.13
2018-10-05T15:52:16.726Z,38.53
2018-10-05T15:54:45.975Z,38.98
2018-10-05T15:57:15.168Z,38.77
2018-10-05T15:59:44.435Z,38.74
2018-10-05T16:02:13.675Z,38.71
2018-10-05T16:04:42.866Z,39.17
2018-10-05T16:07:12.126Z,39.74
2018-10-05T16:09:41.226Z,39.80
2018-10-05T16:12:10.260Z,40.18
2018-10-05T16:14:38.951Z,39.81
2018-10-05T16:17:08.275Z,40.69
2018-10-05T16:19:40.324Z,40.48
2018-10-05T16:22:10.280Z,40.94
2018-10-05T16:24:42.141Z,40.91
2018-10-05T16:27:12.419Z,41.21
2018-10-05T16:29:41.366Z,40.97
2018-10-05T16:32:11.146Z,41.40
2018-10-05T16:34:40.463Z,41.73
2018-10-05T16:37:09.625Z,41.42
2018-10-05T16:39:38.716Z,41.92
2018-10-05T16:42:08.727Z,41.94
2018-10-05T16:44:37.719Z,41.74
2018-10-05T16:47:07.050Z,42.07
2018-10-05T16:49:36.312Z,42.10
2018-10-05T16:52:05.217Z,41.83
2018-10-05T16:54:34.064Z,42.02
2018-10-05T16:57:03.448Z,42.37
2018-10-05T16:59:33.140Z,41.91
2018-10-05T17:02:02.041Z,42.06
2018-10-05T17:04:31.444Z,42.19
2018-10-05T17:07:00.099Z,42.31
2018-10-05T17:09:29.083Z,42.08
2018-10-05T17:11:57.943Z,41.97
2018-10-05T17:14:27.271Z,41.91
2018-10-05T17:16:56.276Z,42.24
2018-10-05T17:19:25.607Z,42.30
2018-10-05T17:21:54.458Z,42.40
2018-10-05T17:24:23.588Z,42.89
2018-10-05T17:26:52.624Z,42.79
2018-10-05T17:29:21.827Z,43.45
2018-10-05T17:31:50.840Z,43.25
2018-10-05T17:34:20.618Z,43.54
2018-10-05T17:36:49.435Z,43.77
2018-10-05T17:39:18.314Z,43.95
2018-10-05T17:41:47.374Z,44.41
2018-10-05T17:44:16.338Z,44.44
2018-10-05T17:46:45.975Z,44.43
2018-10-05T17:49:15.271Z,44.37
2018-10-05T17:51:44.334Z,43.89
2018-10-05T17:54:13.247Z,44.48
2018-10-05T17:56:42.476Z,44.86
2018-10-05T17:59:11.549Z,44.77
2018-10-05T18:01:40.561Z,45.21
2018-10-05T18:04:09.596Z,44.92
2018-10-05T18:06:38.651Z,45.29
2018-10-05T18:09:07.882Z,44.88
2018-10-05T18:11:36.875Z,44.75
2018-10-05T18:14:05.656Z,44.82
2018-10-05T18:16:34.835Z,44.89
2018-10-05T18:19:04.147Z,45.57
2018-10-05T18:21:33.282Z,45.20
2018-10-05T18:24:02.338Z,44.89
2018-10-05T18:26:31.535Z,45.26
2018-10-05T18:29:00.780Z,45.61
2018-10-05T18:31:29.813Z,46.08
2018-10-05T18:33:59.278Z,45.91
2018-10-05T18:36:28.362Z,46.40
2018-10-05T18:38:58.153Z,46.96
2018-10-05T18:41:27.781Z,46.33
2018-10-05T18:43:56.640Z,46.48
2018-10-05T18:46:25.806Z,46.78
2018-10-05T18:48:55.004Z,46.43
2018-10-05T18:51:24.104Z,46.71
2018-10-05T18:53:52.956Z,47.59
2018-10-05T18:56:33.095Z,47.19
2018-10-05T18:59:02.477Z,47.51
2018-10-05T19:01:31.350Z,48.08
2018-10-05T19:04:00.556Z,48.62
2018-10-05T19:06:29.466Z,48.76
2018-10-05T19:08:58.392Z,48.99
2018-10-05T19:11:27.643Z,48.91
2018-10-05T19:13:57.191Z,49.09
2018-10-05T19:16:26.863Z,49.33
2018-10-05T19:18:56.451Z,49.80
2018-10-05T19:21:30.002Z,50.13
2018-10-05T19:24:02.688Z,49.64
2018-10-05T19:26:33.344Z,49.59
2018-10-05T19:29:02.387Z,50.22
2018-10-05T19:31:32.067Z,50.22
2018-10-05T19:34:01.795Z,50.39
2018-10-05T19:36:30.545Z,50.59
2018-10-05T19:39:02.469Z,50.99
2018-10-05T19:41:31.565Z,51.17
2018-10-05T19:44:00.672Z,51.10
2018-10-05T19:46:30.398Z,51.59
2018-10-05T19:49:00.095Z,51.24
2018-10-05T19:51:30.104Z,51.44
2018-10-05T19:53:59.335Z,51.40
2018-10-05T19:56:28.307Z,51.69
2018-10-05T19:58:57.187Z,51.89
2018-10-05T20:01:26.434Z,51.90
2018-10-05T20:03:55.620Z,51.95
2018-10-05T20:06:24.588Z,51.68
2018-10-05T20:08:53.798Z,52.16
2018-10-05T20:11:23.056Z,52.54
2018-10-05T20:13:51.687Z,52.17
2018-10-05T20:16:21.432Z,52.64
2018-10-05T20:18:50.389Z,52.31
2018-10-05T20:21:19.267Z,52.54
2018-10-05T20:23:48.474Z,52.66
2018-10-05T20:26:17.243Z,53.03
2018-10-05T20:28:46.756Z,53.04
2018-10-05T20:31:15.976Z,52.96
2018-10-05T20:33:45.055Z,53.20
2018-10-05T20:36:14.280Z,52.93
2018-10-05T20:38:43.085Z,53.22
2018-10-05T20:41:12.038Z,53.36
2018-10-05T20:43:40.903Z,53.16
2018-10-05T20:46:09.655Z,53.10
2018-10-05T20:48:38.765Z,53.29
2018-10-05T20:51:08.435Z,53.50
2018-10-05T20:53:38.019Z,53.73
2018-10-05T20:56:07.203Z,53.33
2018-10-05T20:58:36.099Z,53.46
2018-10-05T21:01:05.467Z,53.64
2018-10-05T21:03:34.429Z,53.16
2018-10-05T21:06:03.491Z,53.27
2018-10-05T21:08:33.035Z,53.55
2018-10-05T21:11:02.467Z,53.80
2018-10-05T21:13:31.275Z,53.77
2018-10-05T21:16:00.286Z,53.82
2018-10-05T21:18:29.312Z,54.08
2018-10-05T21:20:58.099Z,53.65
2018-10-05T21:23:30.823Z,53.83
2018-10-05T21:26:00.197Z,53.86
2018-10-05T21:28:29.319Z,53.37
2018-10-05T21:30:58.167Z,53.91
2018-10-05T21:33:27.091Z,54.39
2018-10-05T21:35:56.375Z,54.55
2018-10-05T21:38:25.236Z,54.36
2018-10-05T21:40:54.057Z,54.39
2018-10-05T21:43:22.991Z,53.58
2018-10-05T21:45:51.726Z,53.52
2018-10-05T21:48:20.733Z,53.41
2018-10-05T21:50:50.092Z,53.78
2018-10-05T21:53:19.045Z,53.70
2018-10-05T21:55:48.120Z,53.71
2018-10-05T21:58:17.381Z,53.52
2018-10-05T22:00:46.419Z,53.68
2018-10-05T22:03:15.718Z,53.60
2018-10-05T22:05:45.129Z,53.69
2018-10-05T22:08:14.707Z,53.88
2018-10-05T22:10:43.814Z,53.71
2018-10-05T22:13:13.195Z,53.73
2018-10-05T22:15:42.207Z,53.54
2018-10-05T22:18:11.031Z,53.49
2018-10-05T22:20:40.131Z,54.04
2018-10-05T22:23:09.308Z,54.22
2018-10-05T22:25:38.302Z,54.20
2018-10-05T22:28:07.400Z,54.40
2018-10-05T22:30:36.192Z,54.38
2018-10-05T22:33:05.094Z,54.14
2018-10-05T22:35:34.895Z,54.24
2018-10-05T22:38:03.844Z,54.61
2018-10-05T22:40:33.712Z,54.48
2018-10-05T22:43:03.010Z,54.87
2018-10-05T22:45:32.107Z,55.22
2018-10-05T22:48:01.579Z,55.05
2018-10-05T22:50:30.444Z,54.97
2018-10-05T22:52:59.813Z,54.94
2018-10-05T22:55:28.654Z,55.28
2018-10-05T22:57:58.363Z,55.68
2018-10-05T23:00:27.595Z,56.54
2018-10-05T23:02:56.942Z,56.49
2018-10-05T23:05:25.872Z,56.34
2018-10-05T23:07:54.619Z,56.30
2018-10-05T23:10:24.109Z,57.13
2018-10-05T23:12:53.282Z,56.53
2018-10-05T23:15:22.340Z,57.17
2018-10-05T23:17:51.415Z,56.83
2018-10-05T23:20:20.324Z,56.72
2018-10-05T23:22:49.388Z,57.69
2018-10-05T23:25:18.752Z,59.09
2018-10-05T23:27:48.704Z,58.86
2018-10-05T23:30:18.095Z,59.18
2018-10-05T23:32:47.446Z,60.32
2018-10-05T23:35:17.398Z,59.02
2018-10-05T23:37:46.366Z,59.14
2018-10-05T23:40:15.520Z,59.55
2018-10-05T23:42:44.546Z,59.96
2018-10-05T23:45:13.507Z,59.87
2018-10-05T23:47:42.527Z,60.02
2018-10-05T23:50:11.525Z,60.18
2018-10-05T23:52:48.620Z,60.07
2018-10-05T23:55:17.653Z,60.40
2018-10-05T23:57:47.088Z,60.85
